createdAt,value
2023-02-19T00:02:56.008Z,100987.94
2023-02-19T00:06:57.503Z,100989.03
2023-02-19T00:11:07.210Z,100987.56
2023-02-19T00:15:08.869Z,100995.50
2023-02-19T00:19:15.313Z,100989.53
2023-02-19T00:23:16.922Z,100987.75
2023-02-19T00:27:18.373Z,100981.13
2023-02-19T00:31:30.832Z,100971.91
2023-02-19T00:35:34.780Z,100977.06
2023-02-19T00:39:36.203Z,100957.66
2023-02-19T00:43:37.670Z,100965.91
2023-02-19T00:47:39.110Z,100960.41
2023-02-19T00:51:40.556Z,100974.31
2023-02-19T00:55:41.996Z,100963.31
2023-02-19T00:59:43.419Z,100952.94
2023-02-19T01:03:45.884Z,100947.63
2023-02-19T01:07:47.278Z,100947.94
2023-02-19T01:11:48.790Z,100952.91
2023-02-19T01:15:50.310Z,100949.69
2023-02-19T01:19:51.859Z,100936.75
2023-02-19T01:23:54.138Z,100907.78
2023-02-19T01:27:55.611Z,100893.72
2023-02-19T01:31:57.133Z,100884.97
2023-02-19T01:35:58.821Z,100904.38
2023-02-19T01:40:00.274Z,100895.47
2023-02-19T01:44:04.846Z,100890.16
2023-02-19T01:48:27.460Z,100888.06
2023-02-19T01:52:36.249Z,100882.06
2023-02-19T01:56:42.543Z,100878.34
2023-02-19T02:00:44.026Z,100869.75
2023-02-19T02:04:45.518Z,100868.16
2023-02-19T02:09:06.509Z,100866.53
2023-02-19T02:13:08.011Z,100861.38
2023-02-19T02:17:09.819Z,100860.72
2023-02-19T02:21:41.625Z,100858.63
2023-02-19T02:25:55.090Z,100853.91
2023-02-19T02:30:24.420Z,100855.53
2023-02-19T02:34:39.620Z,100856.34
2023-02-19T02:38:44.076Z,100847.25
2023-02-19T02:42:45.895Z,100841.13
2023-02-19T02:46:47.567Z,100831.91
2023-02-19T02:51:00.638Z,100833.84
2023-02-19T02:55:04.897Z,100831.09
2023-02-19T02:59:08.902Z,100834.66
2023-02-19T03:03:10.597Z,100838.19
2023-02-19T03:07:12.595Z,100838.84
2023-02-19T03:11:32.732Z,100839.63
2023-02-19T03:16:06.123Z,100841.59
2023-02-19T03:20:13.081Z,100849.03
2023-02-19T03:24:34.578Z,100843.47
2023-02-19T03:28:57.019Z,100851.22
2023-02-19T03:33:10.566Z,100849.47
2023-02-19T03:37:24.489Z,100848.31
2023-02-19T03:41:40.958Z,100852.47
2023-02-19T03:46:12.641Z,100855.09
2023-02-19T03:50:23.844Z,100850.69
2023-02-19T03:55:10.680Z,100855.16
2023-02-19T03:59:27.556Z,100852.41
2023-02-19T04:03:52.107Z,100857.97
2023-02-19T04:07:59.787Z,100878.31
2023-02-19T04:12:01.871Z,100880.53
2023-02-19T04:16:10.062Z,100886.41
2023-02-19T04:20:13.908Z,100882.28
2023-02-19T04:24:25.233Z,100888.03
2023-02-19T04:28:28.780Z,100899.66
2023-02-19T04:32:30.252Z,100909.88
2023-02-19T04:36:32.876Z,100924.78
2023-02-19T04:40:34.364Z,100915.34
2023-02-19T04:44:35.798Z,100915.63
2023-02-19T04:48:37.500Z,100917.28
2023-02-19T04:52:39.337Z,100916.06
2023-02-19T04:56:40.769Z,100930.34
2023-02-19T05:00:42.205Z,100928.38
2023-02-19T05:04:43.643Z,100931.53
2023-02-19T05:08:45.302Z,100931.50
2023-02-19T05:12:46.836Z,100929.06
2023-02-19T05:16:48.399Z,100933.94
2023-02-19T05:20:51.368Z,100937.19
2023-02-19T05:24:52.829Z,100931.50
2023-02-19T05:28:54.707Z,100934.25
2023-02-19T05:32:56.228Z,100940.31
2023-02-19T05:36:57.757Z,100939.25
2023-02-19T05:41:16.179Z,100944.53
2023-02-19T05:45:17.604Z,100942.31
2023-02-19T05:49:19.018Z,100939.06
2023-02-19T05:53:20.434Z,100942.50
2023-02-19T05:57:21.910Z,100953.69
2023-02-19T06:01:30.132Z,100951.75
2023-02-19T06:05:31.584Z,100965.25
2023-02-19T06:09:33.085Z,100966.28
2023-02-19T06:13:34.776Z,100971.16
2023-02-19T06:17:45.727Z,100974.91
2023-02-19T06:21:57.434Z,100977.63
2023-02-19T06:26:27.423Z,100975.59
2023-02-19T06:30:29.060Z,100975.09
2023-02-19T06:34:31.048Z,100974.59
2023-02-19T06:38:32.573Z,100980.69
2023-02-19T06:42:34.071Z,100982.41
2023-02-19T06:46:35.870Z,101007.28
2023-02-19T06:50:37.406Z,101022.28
2023-02-19T06:54:38.877Z,101035.50
2023-02-19T06:58:40.431Z,101047.84
2023-02-19T07:02:41.890Z,101064.19
2023-02-19T07:06:43.461Z,101063.13
2023-02-19T07:10:45.467Z,101057.81
2023-02-19T07:14:47.186Z,101061.47
2023-02-19T07:18:48.653Z,101074.53
2023-02-19T07:22:50.879Z,101075.47
2023-02-19T07:26:52.337Z,101094.09
2023-02-19T07:30:54.132Z,101092.34
2023-02-19T07:34:55.634Z,101091.31
2023-02-19T07:38:58.274Z,101108.78
2023-02-19T07:43:00.596Z,101101.25
2023-02-19T07:47:02.087Z,101107.75
2023-02-19T07:51:05.419Z,101111.44
2023-02-19T07:55:07.115Z,101123.56
2023-02-19T07:59:08.620Z,101130.19
2023-02-19T08:03:10.392Z,101138.00
2023-02-19T08:07:11.881Z,101149.25
2023-02-19T08:11:31.828Z,101160.03
2023-02-19T08:15:33.268Z,101165.50
2023-02-19T08:19:34.780Z,101169.06
2023-02-19T08:23:36.330Z,101179.75
2023-02-19T08:27:37.802Z,101187.69
2023-02-19T08:31:39.588Z,101194.97
2023-02-19T08:35:42.809Z,101206.34
2023-02-19T08:39:44.238Z,101210.03
2023-02-19T08:43:45.704Z,101228.53
2023-02-19T08:47:47.189Z,101221.16
2023-02-19T08:51:48.619Z,101227.59
2023-02-19T08:55:50.442Z,101240.53
2023-02-19T09:00:12.033Z,101242.56
2023-02-19T09:04:13.481Z,101247.44
2023-02-19T09:08:17.984Z,101249.88
2023-02-19T09:12:23.506Z,101253.34
2023-02-19T09:16:27.982Z,101261.81
2023-02-19T09:20:29.885Z,101257.00
2023-02-19T09:24:32.268Z,101261.69
2023-02-19T09:28:34.625Z,101266.59
2023-02-19T09:32:36.071Z,101267.34
2023-02-19T09:36:38.352Z,101279.06
2023-02-19T09:40:40.055Z,101296.72
2023-02-19T09:44:44.531Z,101288.81
2023-02-19T09:48:46.012Z,101285.63
2023-02-19T09:52:58.305Z,101296.44
2023-02-19T09:57:03.178Z,101301.44
2023-02-19T10:01:07.765Z,101307.50
2023-02-19T10:05:16.889Z,101307.63
2023-02-19T10:09:23.479Z,101317.88
2023-02-19T10:13:33.321Z,101332.53
2023-02-19T10:17:35.603Z,101338.88
2023-02-19T10:21:38.267Z,101343.69
2023-02-19T10:25:57.087Z,101352.91
2023-02-19T10:30:00.265Z,101361.66
2023-02-19T10:34:06.562Z,101367.63
2023-02-19T10:38:08.320Z,101365.44
2023-02-19T10:42:30.101Z,101377.88
2023-02-19T10:46:34.641Z,101383.56
2023-02-19T10:50:46.917Z,101388.47
2023-02-19T10:54:56.147Z,101395.78
2023-02-19T10:59:28.049Z,101400.59
2023-02-19T11:03:29.508Z,101406.94
2023-02-19T11:07:31.279Z,101411.88
2023-02-19T11:11:34.828Z,101420.00
2023-02-19T11:15:37.398Z,101428.41
2023-02-19T11:19:48.541Z,101449.41
2023-02-19T11:23:50.137Z,101441.00
2023-02-19T11:28:07.923Z,101450.41
2023-02-19T11:32:30.074Z,101446.22
2023-02-19T11:36:36.375Z,101445.16
2023-02-19T11:40:50.365Z,101444.13
2023-02-19T11:45:00.824Z,101461.09
2023-02-19T11:49:33.406Z,101458.09
2023-02-19T11:53:42.686Z,101453.13
2023-02-19T11:57:54.725Z,101450.38
2023-02-19T12:02:02.249Z,101439.63
2023-02-19T12:06:27.716Z,101446.47
2023-02-19T12:10:37.607Z,101450.22
2023-02-19T12:14:51.075Z,101464.25
2023-02-19T12:18:58.506Z,101465.38
2023-02-19T12:23:29.353Z,101476.38
2023-02-19T12:28:07.581Z,101468.66
2023-02-19T12:32:32.394Z,101474.59
2023-02-19T12:36:50.815Z,101481.19
2023-02-19T12:41:10.459Z,101487.97
2023-02-19T12:45:47.199Z,101505.41
2023-02-19T12:49:56.447Z,101497.91
2023-02-19T12:54:12.588Z,101494.50
2023-02-19T12:58:28.303Z,101506.00
2023-02-19T13:02:48.993Z,101518.06
2023-02-19T13:06:57.678Z,101510.97
2023-02-19T13:11:15.125Z,101527.88
2023-02-19T13:15:21.015Z,101527.06
2023-02-19T13:19:22.479Z,101536.41
2023-02-19T13:23:55.372Z,101536.94
2023-02-19T13:28:26.361Z,101529.53
2023-02-19T13:32:55.892Z,101524.97
2023-02-19T13:36:59.078Z,101528.63
2023-02-19T13:41:00.784Z,101527.66
2023-02-19T13:45:05.319Z,101531.09
2023-02-19T13:49:28.596Z,101534.75
2023-02-19T13:53:45.170Z,101530.44
2023-02-19T13:57:46.940Z,101550.44
2023-02-19T14:01:51.511Z,101561.00
2023-02-19T14:06:06.388Z,101552.06
2023-02-19T14:10:13.228Z,101566.38
2023-02-19T14:14:25.056Z,101565.47
2023-02-19T14:18:46.495Z,101574.38
2023-02-19T14:22:58.548Z,101568.13
2023-02-19T14:27:00.332Z,101577.97
2023-02-19T14:31:16.497Z,101577.72
2023-02-19T14:35:26.764Z,101577.25
2023-02-19T14:39:31.992Z,101569.25
2023-02-19T14:43:34.884Z,101582.38
2023-02-19T14:47:37.703Z,101578.09
2023-02-19T14:51:44.064Z,101586.31
2023-02-19T14:55:46.535Z,101595.66
2023-02-19T15:00:02.713Z,101604.91
2023-02-19T15:04:05.641Z,101603.31
2023-02-19T15:08:18.346Z,101602.91
2023-02-19T15:12:23.569Z,101614.75
2023-02-19T15:16:26.700Z,101619.91
2023-02-19T15:20:31.136Z,101607.84
2023-02-19T15:24:32.684Z,101625.09
2023-02-19T15:28:34.396Z,101622.66
2023-02-19T15:32:35.888Z,101628.69
2023-02-19T15:36:37.394Z,101609.97
2023-02-19T15:40:38.937Z,101613.31
2023-02-19T15:44:57.577Z,101621.94
2023-02-19T15:49:18.331Z,101626.59
2023-02-19T15:53:34.072Z,101632.81
2023-02-19T15:57:40.558Z,101635.94
2023-02-19T16:01:42.404Z,101642.63
2023-02-19T16:05:44.044Z,101660.16
2023-02-19T16:09:45.519Z,101659.91
2023-02-19T16:13:46.992Z,101668.63
2023-02-19T16:17:48.626Z,101671.38
2023-02-19T16:21:51.138Z,101677.31
2023-02-19T16:26:01.108Z,101682.47
2023-02-19T16:30:10.571Z,101695.00
2023-02-19T16:34:17.629Z,101699.28
2023-02-19T16:38:20.593Z,101702.56
2023-02-19T16:42:22.184Z,101708.06
2023-02-19T16:46:23.945Z,101714.00
2023-02-19T16:50:26.851Z,101714.50
2023-02-19T16:54:28.383Z,101719.22
2023-02-19T16:58:29.909Z,101721.22
2023-02-19T17:02:33.348Z,101727.63
2023-02-19T17:06:37.724Z,101732.81
2023-02-19T17:10:39.186Z,101735.91
2023-02-19T17:14:40.717Z,101732.25
2023-02-19T17:18:42.177Z,101730.25
2023-02-19T17:22:44.887Z,101724.56
2023-02-19T17:26:46.359Z,101724.69
2023-02-19T17:30:47.889Z,101740.41
2023-02-19T17:34:49.679Z,101737.16
2023-02-19T17:38:51.415Z,101744.28
2023-02-19T17:42:52.986Z,101746.44
2023-02-19T17:46:54.560Z,101749.50
2023-02-19T17:50:56.141Z,101755.28
2023-02-19T17:54:57.587Z,101756.25
2023-02-19T17:58:59.685Z,101763.13
2023-02-19T18:03:01.155Z,101754.38
2023-02-19T18:07:03.000Z,101758.56
2023-02-19T18:11:06.359Z,101768.03
2023-02-19T18:15:09.569Z,101767.91
2023-02-19T18:19:11.047Z,101779.56
2023-02-19T18:23:12.692Z,101777.50
2023-02-19T18:27:15.319Z,101786.69
2023-02-19T18:31:16.963Z,101782.41
2023-02-19T18:35:19.702Z,101793.53
2023-02-19T18:39:21.444Z,101788.06
2023-02-19T18:43:23.035Z,101796.28
2023-02-19T18:47:25.931Z,101793.44
2023-02-19T18:51:27.365Z,101798.16
2023-02-19T18:55:28.860Z,101805.66
2023-02-19T18:59:31.086Z,101806.41
2023-02-19T19:03:32.673Z,101803.50
2023-02-19T19:07:34.265Z,101803.94
2023-02-19T19:11:36.282Z,101794.38
2023-02-19T19:15:39.615Z,101790.50
2023-02-19T19:19:44.080Z,101793.22
2023-02-19T19:23:45.859Z,101796.31
2023-02-19T19:27:47.449Z,101807.44
2023-02-19T19:31:49.816Z,101794.22
2023-02-19T19:35:51.511Z,101806.66
2023-02-19T19:39:52.984Z,101793.91
2023-02-19T19:43:54.466Z,101799.50
2023-02-19T19:47:55.933Z,101798.66
2023-02-19T19:52:00.896Z,101797.69
2023-02-19T19:56:02.988Z,101791.38
2023-02-19T20:00:05.206Z,101782.28
2023-02-19T20:04:06.800Z,101789.47
2023-02-19T20:08:08.306Z,101786.16
2023-02-19T20:12:10.813Z,101789.84
2023-02-19T20:16:14.355Z,101790.63
2023-02-19T20:20:19.835Z,101796.41
2023-02-19T20:24:28.525Z,101807.03
2023-02-19T20:28:30.128Z,101808.72
2023-02-19T20:32:31.624Z,101809.56
2023-02-19T20:36:33.155Z,101812.53
2023-02-19T20:40:35.378Z,101813.06
2023-02-19T20:44:36.890Z,101816.09
2023-02-19T20:48:38.581Z,101818.56
2023-02-19T20:52:40.049Z,101822.34
2023-02-19T20:56:48.809Z,101819.06
2023-02-19T21:00:53.455Z,101812.25
2023-02-19T21:04:58.507Z,101808.44
2023-02-19T21:09:00.007Z,101817.41
2023-02-19T21:13:01.470Z,101816.00
2023-02-19T21:17:03.238Z,101808.06
2023-02-19T21:21:05.097Z,101818.94
2023-02-19T21:25:06.702Z,101810.53
2023-02-19T21:29:12.647Z,101805.41
2023-02-19T21:33:14.959Z,101796.66
2023-02-19T21:37:16.420Z,101790.63
2023-02-19T21:41:17.841Z,101778.09
2023-02-19T21:45:19.378Z,101777.28
2023-02-19T21:49:20.995Z,101777.25
2023-02-19T21:53:22.432Z,101773.75
2023-02-19T21:57:23.950Z,101772.69
2023-02-19T22:01:34.992Z,101773.19
2023-02-19T22:05:36.572Z,101768.50
2023-02-19T22:09:38.776Z,101757.34
2023-02-19T22:13:40.449Z,101750.53
2023-02-19T22:17:41.956Z,101744.25
2023-02-19T22:21:44.577Z,101738.22
2023-02-19T22:25:46.081Z,101726.75
2023-02-19T22:29:49.211Z,101725.69
2023-02-19T22:33:50.987Z,101715.00
2023-02-19T22:37:52.883Z,101721.84
2023-02-19T22:41:54.415Z,101725.13
2023-02-19T22:45:56.004Z,101731.41
2023-02-19T22:49:57.690Z,101741.25
2023-02-19T22:53:59.728Z,101754.38
2023-02-19T22:58:01.158Z,101758.47
2023-02-19T23:02:02.885Z,101766.63
2023-02-19T23:06:04.935Z,101750.25
2023-02-19T23:10:07.107Z,101751.91
2023-02-19T23:14:08.773Z,101758.19
2023-02-19T23:18:10.186Z,101751.34
2023-02-19T23:22:11.711Z,101755.19
2023-02-19T23:26:15.150Z,101756.81
2023-02-19T23:30:17.202Z,101762.28
2023-02-19T23:34:19.412Z,101754.09
2023-02-19T23:38:20.991Z,101743.69
2023-02-19T23:42:22.426Z,101740.16
2023-02-19T23:46:23.925Z,101730.56
2023-02-19T23:50:25.420Z,101723.75
2023-02-19T23:54:26.858Z,101719.09
2023-02-19T23:58:28.297Z,101723.22
